EKBI/BLL METAR and TAF weather

Enter ICAO airport designator
Station Type Date Time Source
EKBI METAR 2019/12/08 13:50 UTC NOAA

EKBI 081350Z 24015KT 9999 FEW015TCU BKN025 08/06 Q0985


Station Type Date Time Source
EKBI Decoded METAR 2019/12/08 13:50 UTC NOAA

Billund Lufthavn, Denmark (EKBI) 55-44N 009-10E 79M
Dec 08, 2019 - 08:50 AM EST / 2019.12.08 1350 UTC
Wind: from the WSW (240 degrees) at 17 MPH (15 KT):0
Visibility: greater than 7 mile(s):0
Sky conditions: mostly cloudy
Weather: Towering cumulus clouds observed
Temperature: 46 F (8 C)
Dew Point: 42 F (6 C)
Relative Humidity: 87%
Pressure (altimeter): 29.09 in. Hg (0985 hPa)
ob: EKBI 081350Z 24015KT 9999 FEW015TCU BKN025 08/06 Q0985
cycle: 14

Station Type Date Time Source
EKBI TAF 2019/12/08 12:06 UTC NOAA

TAF EKBI 081101Z 0812/0912 26015KT 9999 BKN020
TEMPO 0816/0912 SHRA BKN012 BKN020CB PROB40
TEMPO 0816/0901 24015G25KT TSRAGS

Example: see airport list